Time;durP1;ratioP1;P1;durP2;ratioP2;P2;SDS_P1;SDS_P2;PMS_P1;PMS_P2;Temp;Humidity;BMP_temperature;BMP_pressure;BME280_temperature;BME280_humidity;BME280_pressure;Samples;Min_cycle;Max_cycle;Signal;HPM_P1;HPM_P2
2022/04/14 00:00:20;;;;;;;48.08;27.17;;;;;;;;;;5025892;28;20221;-66
2022/04/14 00:02:46;;;;;;;52.88;28.85;;;;;;;;;;5020242;28;20190;-66
2022/04/14 00:05:11;;;;;;;56.03;29.75;;;;;;;;;;5009142;28;20635;-67
2022/04/14 00:07:36;;;;;;;58.35;30.00;;;;;;;;;;5021376;28;20186;-66
2022/04/14 00:10:04;;;;;;;52.63;28.27;;;;;;;;;;5014290;28;20882;-66
2022/04/14 00:12:29;;;;;;;54.78;29.60;;;;;;;;;;5021294;28;20238;-66
2022/04/14 00:14:55;;;;;;;55.80;29.33;;;;;;;;;;5014720;28;20186;-66
2022/04/14 00:17:20;;;;;;;57.10;30.33;;;;;;;;;;5020516;28;20237;-66
2022/04/14 00:19:46;;;;;;;58.33;30.00;;;;;;;;;;5017509;28;20432;-66
2022/04/14 00:22:11;;;;;;;52.35;28.63;;;;;;;;;;5019104;28;20751;-66
2022/04/14 00:24:36;;;;;;;59.13;30.13;;;;;;;;;;5024258;28;20615;-66
2022/04/14 00:27:02;;;;;;;59.05;31.33;;;;;;;;;;5021139;28;20174;-66
2022/04/14 00:29:28;;;;;;;53.05;28.85;;;;;;;;;;5014323;28;20179;-67
2022/04/14 00:31:53;;;;;;;54.70;27.98;;;;;;;;;;5024474;28;20201;-66
2022/04/14 00:34:18;;;;;;;56.55;30.55;;;;;;;;;;5009445;28;20187;-66
2022/04/14 00:36:44;;;;;;;60.13;32.42;;;;;;;;;;5023801;28;20174;-66
2022/04/14 00:39:09;;;;;;;64.13;32.22;;;;;;;;;;5014526;28;20201;-66
2022/04/14 00:41:36;;;;;;;61.95;31.75;;;;;;;;;;5021866;28;20191;-67
2022/04/14 00:44:01;;;;;;;55.63;31.75;;;;;;;;;;5016830;28;20661;-67
2022/04/14 00:46:27;;;;;;;59.60;31.08;;;;;;;;;;5026440;28;20174;-67
2022/04/14 00:48:53;;;;;;;53.50;29.00;;;;;;;;;;5023949;28;20566;-67
2022/04/14 00:51:18;;;;;;;55.92;31.13;;;;;;;;;;5022563;28;20229;-67
2022/04/14 00:53:43;;;;;;;55.15;30.38;;;;;;;;;;5016774;28;20183;-67
2022/04/14 00:56:09;;;;;;;52.17;27.70;;;;;;;;;;5022964;28;20551;-67
2022/04/14 00:58:34;;;;;;;58.65;33.70;;;;;;;;;;5018174;28;20493;-67
2022/04/14 01:01:02;;;;;;;71.10;36.45;;;;;;;;;;5015183;28;20205;-66
2022/04/14 01:03:28;;;;;;;62.95;34.75;;;;;;;;;;5012721;28;20182;-67
2022/04/14 01:05:53;;;;;;;67.70;35.85;;;;;;;;;;5015848;28;20204;-67
2022/04/14 01:08:19;;;;;;;65.30;35.05;;;;;;;;;;5024883;28;20665;-67
2022/04/14 01:10:49;;;;;;;65.80;36.00;;;;;;;;;;5024146;28;20265;-67
2022/04/14 01:13:18;;;;;;;69.80;36.42;;;;;;;;;;5015104;28;20217;-67
2022/04/14 01:15:45;;;;;;;61.80;33.67;;;;;;;;;;5024587;28;20261;-67
2022/04/14 01:18:10;;;;;;;64.10;36.22;;;;;;;;;;5027328;28;20186;-67
2022/04/14 01:20:36;;;;;;;68.03;36.55;;;;;;;;;;5024828;28;20644;-67
2022/04/14 01:23:04;;;;;;;64.00;33.63;;;;;;;;;;5024481;28;20188;-67
2022/04/14 01:25:30;;;;;;;68.00;36.33;;;;;;;;;;5009749;28;20183;-67
2022/04/14 01:27:55;;;;;;;78.20;38.88;;;;;;;;;;5028273;28;20201;-67
2022/04/14 01:30:21;;;;;;;74.50;39.05;;;;;;;;;;5023053;28;20178;-67
2022/04/14 01:32:47;;;;;;;73.55;37.35;;;;;;;;;;5020210;28;20194;-67
2022/04/14 01:35:13;;;;;;;78.55;38.92;;;;;;;;;;5011424;28;20196;-66
2022/04/14 01:37:39;;;;;;;84.63;41.58;;;;;;;;;;5022350;28;20495;-66
2022/04/14 01:40:05;;;;;;;85.30;41.40;;;;;;;;;;5025465;28;20185;-67
2022/04/14 01:42:30;;;;;;;77.70;38.25;;;;;;;;;;5023045;28;20547;-67
2022/04/14 01:44:56;;;;;;;84.50;41.22;;;;;;;;;;5014981;28;20605;-67
2022/04/14 01:47:21;;;;;;;80.55;38.67;;;;;;;;;;5027348;28;20193;-67
2022/04/14 01:49:46;;;;;;;90.00;40.92;;;;;;;;;;5025898;28;20232;-66
2022/04/14 01:52:12;;;;;;;86.07;40.72;;;;;;;;;;5018779;28;20182;-67
2022/04/14 01:54:37;;;;;;;77.85;39.78;;;;;;;;;;5022646;28;20552;-66
2022/04/14 01:57:03;;;;;;;73.00;36.45;;;;;;;;;;5025139;28;20699;-66
2022/04/14 01:59:29;;;;;;;91.30;42.55;;;;;;;;;;5026660;28;20182;-67
2022/04/14 02:01:54;;;;;;;78.40;40.17;;;;;;;;;;5024187;28;20768;-67
2022/04/14 02:04:19;;;;;;;97.78;45.38;;;;;;;;;;5024942;28;20188;-67
2022/04/14 02:06:45;;;;;;;99.78;43.80;;;;;;;;;;5030521;28;20182;-67
2022/04/14 02:09:10;;;;;;;90.20;41.95;;;;;;;;;;5026012;28;20312;-67
2022/04/14 02:11:35;;;;;;;83.05;40.85;;;;;;;;;;5026827;28;20211;-67
2022/04/14 02:14:01;;;;;;;83.45;41.00;;;;;;;;;;5028387;28;20182;-66
2022/04/14 02:16:26;;;;;;;97.90;43.20;;;;;;;;;;5027131;28;20236;-66
2022/04/14 02:18:51;;;;;;;95.50;43.85;;;;;;;;;;5014095;28;20269;-67
2022/04/14 02:21:17;;;;;;;102.35;45.45;;;;;;;;;;5011918;28;20611;-66
2022/04/14 02:23:42;;;;;;;92.78;42.63;;;;;;;;;;5023789;28;20188;-66
2022/04/14 02:26:07;;;;;;;90.90;42.28;;;;;;;;;;5027945;28;20182;-67
2022/04/14 02:28:33;;;;;;;96.30;42.25;;;;;;;;;;5024880;28;20174;-66
2022/04/14 02:30:59;;;;;;;100.93;44.70;;;;;;;;;;5026975;28;20209;-67
2022/04/14 02:33:24;;;;;;;86.50;40.90;;;;;;;;;;5028010;28;20203;-66
2022/04/14 02:35:50;;;;;;;95.40;43.88;;;;;;;;;;5027370;28;20220;-66
2022/04/14 02:38:15;;;;;;;93.97;43.75;;;;;;;;;;5029928;28;20185;-66
2022/04/14 02:40:40;;;;;;;102.82;43.83;;;;;;;;;;5023876;28;20251;-66
2022/04/14 02:43:06;;;;;;;95.00;44.70;;;;;;;;;;5027637;28;20213;-66
2022/04/14 02:45:31;;;;;;;101.72;46.70;;;;;;;;;;5018409;28;20190;-66
2022/04/14 02:47:56;;;;;;;94.07;42.78;;;;;;;;;;5025246;28;20189;-66
2022/04/14 02:50:22;;;;;;;95.78;44.60;;;;;;;;;;5025954;28;20174;-66
2022/04/14 02:52:48;;;;;;;96.63;42.42;;;;;;;;;;5023712;28;20539;-66
2022/04/14 02:55:14;;;;;;;106.85;47.13;;;;;;;;;;5021462;28;20186;-66
2022/04/14 02:57:40;;;;;;;96.65;45.00;;;;;;;;;;5022675;28;20818;-66
2022/04/14 03:00:09;;;;;;;111.05;47.40;;;;;;;;;;5031698;28;20189;-66
2022/04/14 03:02:35;;;;;;;102.93;44.85;;;;;;;;;;5023219;28;20212;-66
2022/04/14 03:05:02;;;;;;;110.10;46.67;;;;;;;;;;5023256;28;20183;-66
2022/04/14 03:07:28;;;;;;;115.70;50.33;;;;;;;;;;5023113;28;20182;-66
2022/04/14 03:09:53;;;;;;;123.10;48.80;;;;;;;;;;5023331;28;20261;-66
2022/04/14 03:12:19;;;;;;;128.77;51.45;;;;;;;;;;5013701;28;20690;-66
2022/04/14 03:14:46;;;;;;;132.93;52.53;;;;;;;;;;5022279;28;20193;-66
2022/04/14 03:17:12;;;;;;;122.00;50.88;;;;;;;;;;5028124;28;20185;-65
2022/04/14 03:19:37;;;;;;;125.07;51.55;;;;;;;;;;5029404;28;20667;-66
2022/04/14 03:22:03;;;;;;;122.22;51.03;;;;;;;;;;5021804;28;20201;-67
2022/04/14 03:24:28;;;;;;;131.48;52.85;;;;;;;;;;5025938;28;20197;-67
2022/04/14 03:26:54;;;;;;;128.95;50.78;;;;;;;;;;5021183;28;20261;-66
2022/04/14 03:29:19;;;;;;;134.15;52.47;;;;;;;;;;5021750;28;20174;-66
2022/04/14 03:31:44;;;;;;;130.25;50.50;;;;;;;;;;5015200;28;20264;-66
2022/04/14 03:34:10;;;;;;;145.15;54.72;;;;;;;;;;5025064;28;20178;-66
2022/04/14 03:36:35;;;;;;;130.18;51.75;;;;;;;;;;5026072;28;20194;-67
2022/04/14 03:39:00;;;;;;;145.68;55.22;;;;;;;;;;5027089;28;20213;-67
2022/04/14 03:41:26;;;;;;;173.43;55.90;;;;;;;;;;5007784;28;20248;-67
2022/04/14 03:43:51;;;;;;;139.07;51.90;;;;;;;;;;5027792;28;20183;-67
2022/04/14 03:46:19;;;;;;;175.35;53.03;;;;;;;;;;5027361;28;20175;-66
2022/04/14 03:48:45;;;;;;;234.05;54.45;;;;;;;;;;5021990;28;20677;-67
2022/04/14 03:51:12;;;;;;;177.05;54.97;;;;;;;;;;5025930;28;20167;-66
2022/04/14 03:53:37;;;;;;;140.25;49.78;;;;;;;;;;5020333;28;20609;-67
2022/04/14 03:56:03;;;;;;;197.80;53.50;;;;;;;;;;5022638;28;20207;-67
2022/04/14 03:58:28;;;;;;;242.65;54.65;;;;;;;;;;5023791;28;20194;-67
2022/04/14 04:00:54;;;;;;;208.27;53.38;;;;;;;;;;5010662;28;20214;-67
2022/04/14 04:03:19;;;;;;;143.23;50.03;;;;;;;;;;5025068;28;20236;-67
2022/04/14 04:05:44;;;;;;;154.48;51.42;;;;;;;;;;5028125;28;20712;-67
2022/04/14 04:08:10;;;;;;;144.40;51.03;;;;;;;;;;5027511;28;20265;-67
2022/04/14 04:10:35;;;;;;;139.02;51.95;;;;;;;;;;5026518;28;20565;-67
2022/04/14 04:13:00;;;;;;;153.20;50.35;;;;;;;;;;5019565;28;20265;-67
2022/04/14 04:15:26;;;;;;;154.63;50.97;;;;;;;;;;5018946;28;20186;-67
2022/04/14 04:17:51;;;;;;;142.32;51.03;;;;;;;;;;5019476;28;20395;-67
2022/04/14 04:20:20;;;;;;;142.00;50.22;;;;;;;;;;5024443;28;20205;-67
2022/04/14 04:22:46;;;;;;;163.52;50.85;;;;;;;;;;5019921;28;20662;-67
2022/04/14 04:25:11;;;;;;;165.60;53.15;;;;;;;;;;5026943;28;20217;-67
2022/04/14 04:27:37;;;;;;;152.52;49.58;;;;;;;;;;5024189;28;20642;-67
2022/04/14 04:30:07;;;;;;;128.05;49.92;;;;;;;;;;5014418;28;20631;-67
2022/04/14 04:32:33;;;;;;;135.68;50.22;;;;;;;;;;5011257;28;20229;-67
2022/04/14 04:34:59;;;;;;;146.48;49.80;;;;;;;;;;5027009;28;20400;-67
2022/04/14 04:37:25;;;;;;;136.90;49.22;;;;;;;;;;5027450;28;20182;-67
2022/04/14 04:39:50;;;;;;;149.30;49.67;;;;;;;;;;5012207;28;20176;-67
2022/04/14 04:42:15;;;;;;;197.02;51.17;;;;;;;;;;5009553;28;20198;-67
2022/04/14 04:44:41;;;;;;;168.23;49.42;;;;;;;;;;5020906;28;20276;-67
2022/04/14 04:47:06;;;;;;;144.98;48.63;;;;;;;;;;5018433;28;20274;-67
2022/04/14 04:49:31;;;;;;;119.70;47.42;;;;;;;;;;5019337;28;20179;-67
2022/04/14 04:51:59;;;;;;;119.28;46.08;;;;;;;;;;5024593;28;20512;-67
2022/04/14 04:54:25;;;;;;;130.30;48.85;;;;;;;;;;5027124;28;20178;-67
2022/04/14 04:56:51;;;;;;;162.23;49.80;;;;;;;;;;5022558;28;20256;-67
2022/04/14 04:59:16;;;;;;;114.43;47.08;;;;;;;;;;5025934;28;20181;-67
2022/04/14 05:01:41;;;;;;;116.45;49.72;;;;;;;;;;5021482;28;20190;-67
2022/04/14 05:04:09;;;;;;;131.15;47.47;;;;;;;;;;5028291;28;20720;-67
2022/04/14 05:06:34;;;;;;;109.07;47.85;;;;;;;;;;5019113;28;20269;-67
2022/04/14 05:08:59;;;;;;;142.23;46.13;;;;;;;;;;5027875;28;20315;-67
2022/04/14 05:11:25;;;;;;;143.05;47.65;;;;;;;;;;5019516;28;20237;-67
2022/04/14 05:13:50;;;;;;;127.93;45.72;;;;;;;;;;5027860;28;20208;-67
2022/04/14 05:16:15;;;;;;;137.18;45.67;;;;;;;;;;5025467;28;20186;-67
2022/04/14 05:18:41;;;;;;;121.90;47.10;;;;;;;;;;5024129;28;20193;-67
2022/04/14 05:21:06;;;;;;;107.72;45.65;;;;;;;;;;5020479;28;20949;-67
2022/04/14 05:23:31;;;;;;;132.55;46.03;;;;;;;;;;5024747;28;20178;-67
2022/04/14 05:25:57;;;;;;;110.22;44.83;;;;;;;;;;5023028;28;20174;-67
2022/04/14 05:28:22;;;;;;;110.85;44.38;;;;;;;;;;5021618;28;20243;-67
2022/04/14 05:30:47;;;;;;;112.65;43.88;;;;;;;;;;5012284;28;20297;-67
2022/04/14 05:33:13;;;;;;;120.85;46.55;;;;;;;;;;5020304;28;20182;-67
2022/04/14 05:35:38;;;;;;;114.60;44.50;;;;;;;;;;5019253;28;20182;-67
2022/04/14 05:38:05;;;;;;;94.60;40.70;;;;;;;;;;5028075;28;20186;-67
2022/04/14 05:40:30;;;;;;;126.35;44.45;;;;;;;;;;5023829;28;20198;-67
2022/04/14 05:42:56;;;;;;;134.15;43.75;;;;;;;;;;5028611;28;20232;-67
2022/04/14 05:45:21;;;;;;;125.32;44.90;;;;;;;;;;5024168;28;20187;-67
2022/04/14 05:47:46;;;;;;;132.73;43.08;;;;;;;;;;5023521;28;20194;-66
2022/04/14 05:50:12;;;;;;;120.45;42.45;;;;;;;;;;5024710;28;20197;-66
2022/04/14 05:52:38;;;;;;;138.50;44.58;;;;;;;;;;5025925;28;20196;-67
2022/04/14 05:55:04;;;;;;;125.15;43.22;;;;;;;;;;5029053;28;20643;-67
2022/04/14 05:57:29;;;;;;;101.43;39.60;;;;;;;;;;5026470;28;20614;-67
2022/04/14 05:59:56;;;;;;;87.22;39.55;;;;;;;;;;5028527;28;20178;-67
2022/04/14 06:02:21;;;;;;;108.90;43.50;;;;;;;;;;5023769;28;20288;-67
2022/04/14 06:04:46;;;;;;;94.05;38.45;;;;;;;;;;5024052;28;20257;-67
2022/04/14 06:07:12;;;;;;;97.78;40.80;;;;;;;;;;5020156;28;20182;-67
2022/04/14 06:09:37;;;;;;;106.85;39.47;;;;;;;;;;5027366;28;20178;-68
2022/04/14 06:12:03;;;;;;;104.13;41.17;;;;;;;;;;5027620;28;20229;-67
2022/04/14 06:14:30;;;;;;;85.80;39.95;;;;;;;;;;5029502;28;20186;-67
2022/04/14 06:16:55;;;;;;;84.75;40.65;;;;;;;;;;5023824;28;20681;-67
2022/04/14 06:19:21;;;;;;;85.15;39.97;;;;;;;;;;5025825;28;20174;-67
2022/04/14 06:21:47;;;;;;;97.13;41.58;;;;;;;;;;5027774;28;20225;-66
2022/04/14 06:24:12;;;;;;;84.35;39.67;;;;;;;;;;5027309;28;20174;-67
2022/04/14 06:26:38;;;;;;;82.53;38.95;;;;;;;;;;5021679;28;20721;-66
2022/04/14 06:29:04;;;;;;;78.60;39.33;;;;;;;;;;5026544;28;20182;-66
2022/04/14 06:31:29;;;;;;;82.55;40.13;;;;;;;;;;5022831;28;20252;-66
2022/04/14 06:33:55;;;;;;;74.95;39.22;;;;;;;;;;5024173;28;20193;-67
2022/04/14 06:36:20;;;;;;;80.72;40.42;;;;;;;;;;5018975;28;20646;-67
2022/04/14 06:38:45;;;;;;;76.40;37.25;;;;;;;;;;5016883;28;20197;-66
2022/04/14 06:41:11;;;;;;;82.43;41.33;;;;;;;;;;5026526;28;20735;-67
2022/04/14 06:43:36;;;;;;;70.22;37.50;;;;;;;;;;5028514;28;20182;-67
2022/04/14 06:46:03;;;;;;;67.47;38.65;;;;;;;;;;5026027;28;20285;-66
2022/04/14 06:48:30;;;;;;;71.53;37.97;;;;;;;;;;5026688;28;20194;-66
2022/04/14 06:50:55;;;;;;;65.63;35.88;;;;;;;;;;5021135;28;20618;-66
2022/04/14 06:53:21;;;;;;;69.30;36.65;;;;;;;;;;5024907;28;20436;-66
2022/04/14 06:55:48;;;;;;;72.82;37.88;;;;;;;;;;5022432;28;20653;-66
2022/04/14 06:58:13;;;;;;;62.30;35.97;;;;;;;;;;5026918;28;20638;-66
2022/04/14 07:00:39;;;;;;;62.10;35.92;;;;;;;;;;5028185;28;20198;-66
2022/04/14 07:03:05;;;;;;;62.20;35.00;;;;;;;;;;5028852;28;20606;-66
2022/04/14 07:05:30;;;;;;;56.05;34.28;;;;;;;;;;5028443;28;20282;-66
2022/04/14 07:07:55;;;;;;;54.95;32.25;;;;;;;;;;5028446;28;20217;-66
2022/04/14 07:10:21;;;;;;;56.35;32.60;;;;;;;;;;5026698;28;20182;-66
2022/04/14 07:12:46;;;;;;;51.15;31.70;;;;;;;;;;5026094;28;20218;-66
2022/04/14 07:15:13;;;;;;;56.17;32.65;;;;;;;;;;5025145;28;20550;-66
2022/04/14 07:17:39;;;;;;;54.63;32.50;;;;;;;;;;5019346;28;20183;-66
2022/04/14 07:20:07;;;;;;;53.90;31.73;;;;;;;;;;5024234;28;20316;-67
2022/04/14 07:22:46;;;;;;;57.80;31.75;;;;;;;;;;5028031;28;20190;-67
2022/04/14 07:25:13;;;;;;;52.40;31.40;;;;;;;;;;5026638;28;20197;-67
2022/04/14 07:27:38;;;;;;;52.30;32.83;;;;;;;;;;5028001;28;20206;-67
2022/04/14 07:30:05;;;;;;;53.90;31.40;;;;;;;;;;5028545;28;20178;-67
2022/04/14 07:32:35;;;;;;;54.58;31.17;;;;;;;;;;5020892;28;20547;-66
2022/04/14 07:35:00;;;;;;;53.63;30.15;;;;;;;;;;5029318;28;20190;-66
2022/04/14 07:37:25;;;;;;;48.47;31.35;;;;;;;;;;5015496;28;20202;-66
2022/04/14 07:39:51;;;;;;;51.03;32.38;;;;;;;;;;5028501;28;20789;-66
2022/04/14 07:42:16;;;;;;;50.55;31.33;;;;;;;;;;5025880;28;20202;-66
2022/04/14 07:44:41;;;;;;;50.72;30.88;;;;;;;;;;5028041;28;20182;-66
2022/04/14 07:47:07;;;;;;;48.05;30.25;;;;;;;;;;5027673;28;20198;-66
2022/04/14 07:49:32;;;;;;;43.92;27.38;;;;;;;;;;5028012;28;20178;-67
2022/04/14 07:51:57;;;;;;;45.08;28.02;;;;;;;;;;5028216;28;20190;-67
2022/04/14 07:54:23;;;;;;;47.35;29.00;;;;;;;;;;5028299;28;20194;-67
2022/04/14 07:56:48;;;;;;;50.20;30.45;;;;;;;;;;5026148;28;20186;-66
2022/04/14 07:59:13;;;;;;;49.03;31.48;;;;;;;;;;5027588;28;20445;-67
2022/04/14 08:01:39;;;;;;;48.28;30.63;;;;;;;;;;5025837;28;20225;-67
2022/04/14 08:04:04;;;;;;;53.95;30.92;;;;;;;;;;5023116;28;20190;-67
2022/04/14 08:06:31;;;;;;;52.72;32.40;;;;;;;;;;5026868;28;20218;-66
2022/04/14 08:08:56;;;;;;;54.75;31.73;;;;;;;;;;5027813;28;20185;-67
2022/04/14 08:11:22;;;;;;;46.63;28.88;;;;;;;;;;5028422;28;20540;-67
2022/04/14 08:13:47;;;;;;;50.97;30.63;;;;;;;;;;5020392;28;20178;-67
2022/04/14 08:16:13;;;;;;;50.50;30.23;;;;;;;;;;5022165;28;20182;-67
2022/04/14 08:18:39;;;;;;;47.35;29.33;;;;;;;;;;5026221;28;20182;-67
2022/04/14 08:21:06;;;;;;;46.75;28.58;;;;;;;;;;5027503;28;20243;-66
2022/04/14 08:23:32;;;;;;;46.53;30.42;;;;;;;;;;5025697;28;20274;-66
2022/04/14 08:25:57;;;;;;;46.55;29.50;;;;;;;;;;5026172;28;20646;-66
2022/04/14 08:28:23;;;;;;;49.13;29.98;;;;;;;;;;5025353;28;20218;-66
2022/04/14 08:30:49;;;;;;;43.22;27.67;;;;;;;;;;5026867;28;20585;-66
2022/04/14 08:33:16;;;;;;;42.70;28.20;;;;;;;;;;5026606;28;20197;-66
2022/04/14 08:35:41;;;;;;;45.22;27.38;;;;;;;;;;5023245;28;20196;-66
2022/04/14 08:38:07;;;;;;;43.80;27.48;;;;;;;;;;5025629;28;20198;-66
2022/04/14 08:40:36;;;;;;;44.10;26.85;;;;;;;;;;5027968;28;20194;-66
2022/04/14 08:43:06;;;;;;;41.55;26.15;;;;;;;;;;5024029;28;20201;-65
2022/04/14 08:45:43;;;;;;;41.28;24.73;;;;;;;;;;5027444;28;20209;-65
2022/04/14 08:48:08;;;;;;;41.67;25.52;;;;;;;;;;5023535;28;20182;-66
2022/04/14 08:50:34;;;;;;;44.45;25.83;;;;;;;;;;5027078;28;20670;-66
2022/04/14 08:53:03;;;;;;;41.03;26.45;;;;;;;;;;5024606;28;20174;-66
2022/04/14 08:55:29;;;;;;;44.58;25.85;;;;;;;;;;5027162;28;20182;-66
2022/04/14 08:57:55;;;;;;;44.58;28.02;;;;;;;;;;5024563;28;20648;-66
2022/04/14 09:00:20;;;;;;;44.92;26.08;;;;;;;;;;5026114;28;20186;-66
2022/04/14 09:02:46;;;;;;;43.13;26.15;;;;;;;;;;5023834;28;20189;-66
2022/04/14 09:05:17;;;;;;;42.35;25.27;;;;;;;;;;5021856;28;20186;-67
2022/04/14 09:07:48;;;;;;;36.50;24.42;;;;;;;;;;5022616;28;20613;-67
2022/04/14 09:10:13;;;;;;;43.50;26.85;;;;;;;;;;5026796;28;20186;-67
2022/04/14 09:12:39;;;;;;;44.22;24.45;;;;;;;;;;5025312;28;20596;-67
2022/04/14 09:15:05;;;;;;;39.80;24.42;;;;;;;;;;5024042;28;20201;-67
2022/04/14 09:17:30;;;;;;;35.72;22.27;;;;;;;;;;5023276;28;20192;-66
2022/04/14 09:19:56;;;;;;;40.22;22.80;;;;;;;;;;5025174;28;20268;-66
2022/04/14 09:22:23;;;;;;;38.17;22.73;;;;;;;;;;5025614;28;20289;-66
2022/04/14 09:24:54;;;;;;;35.42;22.05;;;;;;;;;;5026569;28;20178;-66
2022/04/14 09:27:27;;;;;;;34.88;20.75;;;;;;;;;;5024403;28;20225;-66
2022/04/14 09:29:54;;;;;;;35.70;21.45;;;;;;;;;;5026665;28;20178;-66
2022/04/14 09:32:37;;;;;;;31.73;19.48;;;;;;;;;;5012814;28;20271;-66
2022/04/14 09:35:05;;;;;;;34.88;18.98;;;;;;;;;;5021519;28;20556;-66
2022/04/14 09:37:31;;;;;;;28.65;18.48;;;;;;;;;;5025174;28;20641;-66
2022/04/14 09:40:02;;;;;;;30.90;18.08;;;;;;;;;;5026159;28;20189;-66
2022/04/14 09:42:30;;;;;;;27.75;17.42;;;;;;;;;;5025279;28;20308;-66
2022/04/14 09:45:18;;;;;;;30.13;19.10;;;;;;;;;;5021329;28;20865;-66
2022/04/14 09:47:43;;;;;;;28.27;18.00;;;;;;;;;;5008654;28;20182;-66
2022/04/14 09:50:31;;;;;;;31.55;17.35;;;;;;;;;;5026658;28;20192;-67
2022/04/14 09:53:14;;;;;;;27.90;18.25;;;;;;;;;;5021016;28;20217;-66
2022/04/14 09:55:55;;;;;;;23.40;16.00;;;;;;;;;;5021503;28;20240;-66
2022/04/14 09:58:22;;;;;;;30.13;17.17;;;;;;;;;;5017771;28;20652;-66
2022/04/14 10:00:49;;;;;;;29.25;18.27;;;;;;;;;;5024492;28;20202;-66
2022/04/14 10:03:17;;;;;;;27.13;18.40;;;;;;;;;;5024299;28;20208;-67
2022/04/14 10:05:45;;;;;;;26.88;17.83;;;;;;;;;;5018856;28;20265;-67
2022/04/14 10:08:13;;;;;;;21.67;14.57;;;;;;;;;;5023976;28;20236;-67
2022/04/14 10:10:40;;;;;;;26.95;16.55;;;;;;;;;;5024885;28;20737;-67
2022/04/14 10:13:11;;;;;;;20.08;14.38;;;;;;;;;;5026537;28;20721;-67
2022/04/14 10:15:41;;;;;;;19.33;12.43;;;;;;;;;;5024522;28;20650;-67
2022/04/14 10:18:09;;;;;;;19.95;12.45;;;;;;;;;;5018175;28;20187;-67
2022/04/14 10:20:36;;;;;;;18.98;11.00;;;;;;;;;;5014704;28;20226;-68
2022/04/14 10:23:02;;;;;;;20.85;11.85;;;;;;;;;;5014291;28;20193;-66
2022/04/14 10:25:28;;;;;;;19.40;12.27;;;;;;;;;;5024490;28;20278;-66
2022/04/14 10:27:56;;;;;;;18.90;12.60;;;;;;;;;;5025930;28;20292;-66
2022/04/14 10:30:23;;;;;;;22.55;11.95;;;;;;;;;;5029758;28;20182;-66
2022/04/14 10:32:50;;;;;;;18.33;12.48;;;;;;;;;;5028944;28;20192;-66
2022/04/14 10:35:15;;;;;;;20.35;13.13;;;;;;;;;;5028208;28;20669;-67
2022/04/14 10:37:52;;;;;;;24.23;13.45;;;;;;;;;;5025684;28;20272;-67
2022/04/14 10:40:17;;;;;;;21.95;13.40;;;;;;;;;;5026857;28;20186;-67
2022/04/14 10:42:49;;;;;;;22.33;14.35;;;;;;;;;;5026647;28;20599;-67
2022/04/14 10:45:21;;;;;;;21.75;13.20;;;;;;;;;;5027520;28;20335;-67
2022/04/14 10:47:49;;;;;;;19.33;12.20;;;;;;;;;;5024234;28;20194;-67
2022/04/14 10:50:25;;;;;;;20.02;12.50;;;;;;;;;;5023519;28;20258;-67
2022/04/14 10:53:01;;;;;;;15.52;10.00;;;;;;;;;;5026123;28;20645;-66
2022/04/14 10:55:37;;;;;;;16.52;9.13;;;;;;;;;;5023918;28;20187;-67
2022/04/14 10:58:02;;;;;;;16.08;8.20;;;;;;;;;;5019416;28;20608;-67
2022/04/14 11:00:31;;;;;;;14.23;7.93;;;;;;;;;;5021825;28;20186;-67
2022/04/14 11:03:11;;;;;;;14.35;8.93;;;;;;;;;;5023096;28;20270;-67
2022/04/14 11:05:47;;;;;;;18.33;9.43;;;;;;;;;;5028640;28;20228;-67
2022/04/14 11:08:23;;;;;;;14.30;7.90;;;;;;;;;;5022211;28;20183;-67
2022/04/14 11:11:07;;;;;;;15.38;9.70;;;;;;;;;;5027646;28;20269;-66
2022/04/14 11:13:50;;;;;;;17.48;9.25;;;;;;;;;;5027961;28;20190;-66
2022/04/14 11:16:41;;;;;;;12.77;8.75;;;;;;;;;;5025946;28;20351;-67
2022/04/14 11:19:19;;;;;;;14.88;8.52;;;;;;;;;;5018363;28;20226;-68
2022/04/14 11:22:07;;;;;;;11.52;6.93;;;;;;;;;;5028116;28;20216;-67
2022/04/14 11:24:33;;;;;;;12.07;6.88;;;;;;;;;;5026188;28;20217;-66
2022/04/14 11:27:17;;;;;;;12.52;7.75;;;;;;;;;;5027826;28;20192;-67
2022/04/14 11:29:48;;;;;;;12.25;8.13;;;;;;;;;;5028136;28;20185;-66
2022/04/14 11:32:15;;;;;;;12.77;8.10;;;;;;;;;;5007758;28;20286;-66
2022/04/14 11:34:41;;;;;;;15.32;8.18;;;;;;;;;;5028187;28;20194;-66
2022/04/14 11:37:42;;;;;;;12.50;7.68;;;;;;;;;;5028846;28;20186;-67
2022/04/14 11:40:17;;;;;;;13.30;7.15;;;;;;;;;;5026647;28;20271;-66
2022/04/14 11:42:46;;;;;;;9.50;6.47;;;;;;;;;;5024259;28;20182;-66
2022/04/14 11:45:12;;;;;;;8.25;5.10;;;;;;;;;;5028680;28;20637;-67
2022/04/14 11:47:38;;;;;;;7.88;5.22;;;;;;;;;;5027401;28;20211;-66
2022/04/14 11:50:06;;;;;;;6.63;5.10;;;;;;;;;;5027753;28;20654;-66
2022/04/14 11:52:32;;;;;;;8.40;5.88;;;;;;;;;;5027666;28;20181;-66
2022/04/14 11:54:58;;;;;;;9.63;6.55;;;;;;;;;;5026917;28;20220;-66
2022/04/14 11:57:28;;;;;;;8.80;5.90;;;;;;;;;;5027498;28;20190;-67
2022/04/14 11:59:56;;;;;;;9.73;5.95;;;;;;;;;;5027251;28;20178;-67
2022/04/14 12:02:23;;;;;;;8.00;5.20;;;;;;;;;;5028381;28;20209;-66
2022/04/14 12:04:50;;;;;;;10.35;6.38;;;;;;;;;;5024977;28;20196;-66
2022/04/14 12:07:17;;;;;;;7.45;5.82;;;;;;;;;;5028205;28;20186;-66
2022/04/14 12:09:43;;;;;;;8.13;4.95;;;;;;;;;;5027352;28;20178;-66
2022/04/14 12:12:19;;;;;;;5.90;4.63;;;;;;;;;;5024771;28;20250;-66
2022/04/14 12:14:46;;;;;;;8.25;5.68;;;;;;;;;;5024748;28;20200;-66
2022/04/14 12:17:12;;;;;;;6.57;5.55;;;;;;;;;;5026312;28;20646;-66
2022/04/14 12:20:03;;;;;;;9.07;6.47;;;;;;;;;;5025058;28;20189;-67
2022/04/14 12:22:30;;;;;;;9.75;6.50;;;;;;;;;;5025176;28;20241;-66
2022/04/14 12:24:57;;;;;;;9.80;6.57;;;;;;;;;;5026204;28;20186;-66
2022/04/14 12:27:37;;;;;;;10.52;6.60;;;;;;;;;;5026828;28;20193;-66
2022/04/14 12:30:16;;;;;;;8.73;5.93;;;;;;;;;;5026879;28;20184;-66
2022/04/14 12:32:43;;;;;;;10.07;6.97;;;;;;;;;;5025357;28;20613;-66
2022/04/14 12:35:10;;;;;;;9.40;6.75;;;;;;;;;;5022579;28;20242;-65
2022/04/14 12:37:42;;;;;;;11.05;6.68;;;;;;;;;;5024868;28;20182;-66
2022/04/14 12:40:08;;;;;;;10.10;6.78;;;;;;;;;;5024048;28;20193;-66
2022/04/14 12:42:33;;;;;;;9.32;7.50;;;;;;;;;;5026154;28;20210;-66
2022/04/14 12:45:07;;;;;;;9.63;6.63;;;;;;;;;;5022360;28;20390;-66
2022/04/14 12:47:35;;;;;;;9.02;6.28;;;;;;;;;;5008511;28;20631;-66
2022/04/14 12:50:03;;;;;;;5.18;3.92;;;;;;;;;;5017866;28;20265;-67
2022/04/14 12:52:28;;;;;;;4.72;3.30;;;;;;;;;;5027123;28;20214;-65
2022/04/14 12:54:55;;;;;;;5.80;4.05;;;;;;;;;;5024348;28;20684;-66
2022/04/14 12:57:23;;;;;;;6.07;3.50;;;;;;;;;;5025981;28;20209;-67
2022/04/14 13:00:18;;;;;;;6.80;3.83;;;;;;;;;;5022806;28;20182;-66
2022/04/14 13:03:02;;;;;;;5.63;3.78;;;;;;;;;;5021800;28;20222;-66
2022/04/14 13:05:28;;;;;;;5.47;3.60;;;;;;;;;;5024118;28;20182;-66
2022/04/14 13:07:55;;;;;;;4.25;3.13;;;;;;;;;;5025797;28;20233;-67
2022/04/14 13:10:29;;;;;;;4.40;2.40;;;;;;;;;;5015491;28;20186;-66
2022/04/14 13:12:55;;;;;;;3.80;2.35;;;;;;;;;;5025647;28;20230;-66
2022/04/14 13:15:21;;;;;;;3.10;1.98;;;;;;;;;;5026720;28;20261;-66
2022/04/14 13:17:47;;;;;;;4.50;2.33;;;;;;;;;;5025923;28;20218;-66
2022/04/14 13:20:18;;;;;;;7.50;2.67;;;;;;;;;;5025169;28;20181;-66
2022/04/14 13:22:48;;;;;;;4.13;2.25;;;;;;;;;;5025513;28;20320;-66
2022/04/14 13:25:14;;;;;;;6.40;2.63;;;;;;;;;;5023841;28;20674;-67
2022/04/14 13:27:41;;;;;;;3.40;2.53;;;;;;;;;;5024958;28;20174;-67
2022/04/14 13:30:07;;;;;;;5.97;2.90;;;;;;;;;;5023896;28;20273;-66
2022/04/14 13:32:33;;;;;;;6.70;3.60;;;;;;;;;;5025973;28;20277;-66
2022/04/14 13:34:58;;;;;;;7.72;4.25;;;;;;;;;;5024075;28;20825;-66
2022/04/14 13:37:24;;;;;;;7.32;4.13;;;;;;;;;;5025625;28;20247;-66
2022/04/14 13:39:50;;;;;;;6.55;4.63;;;;;;;;;;5024421;28;20184;-66
2022/04/14 13:42:15;;;;;;;8.13;4.97;;;;;;;;;;5026320;28;20586;-66
2022/04/14 13:44:43;;;;;;;8.13;4.40;;;;;;;;;;5025616;28;20220;-66
2022/04/14 13:47:10;;;;;;;7.80;4.20;;;;;;;;;;5025834;28;20201;-66
2022/04/14 13:49:35;;;;;;;6.60;4.10;;;;;;;;;;5023178;28;20281;-67
2022/04/14 13:52:02;;;;;;;4.82;3.35;;;;;;;;;;5026521;28;20603;-66
2022/04/14 13:54:27;;;;;;;5.00;3.20;;;;;;;;;;5025351;28;20182;-66
2022/04/14 13:56:53;;;;;;;4.88;3.10;;;;;;;;;;5024060;28;20190;-66
2022/04/14 13:59:18;;;;;;;6.95;3.60;;;;;;;;;;5027008;28;20265;-66
2022/04/14 14:01:43;;;;;;;4.70;2.88;;;;;;;;;;5027138;28;20194;-67
2022/04/14 14:04:09;;;;;;;4.53;3.45;;;;;;;;;;5025284;28;20190;-66
2022/04/14 14:06:34;;;;;;;5.78;4.10;;;;;;;;;;5028234;28;20186;-66
2022/04/14 14:08:59;;;;;;;9.38;4.10;;;;;;;;;;5028191;28;20550;-66
2022/04/14 14:11:26;;;;;;;9.93;6.07;;;;;;;;;;5028446;28;20252;-66
2022/04/14 14:13:52;;;;;;;9.07;5.68;;;;;;;;;;5026678;28;20182;-66
2022/04/14 14:16:18;;;;;;;9.60;5.38;;;;;;;;;;5027587;28;20186;-66
2022/04/14 14:18:44;;;;;;;10.43;6.80;;;;;;;;;;5028667;28;20182;-67